sensor_id;sensor_type;location;lat;lon;timestamp;pressure;altitude;pressure_sealevel;temperature;humidity
78584;BME280;67880;46.082;18.234;2024-01-06T14:00:52;98208.28;;;11.23;90.68
78584;BME280;67880;46.082;18.234;2024-01-06T14:01:24;98199.19;;;11.24;90.93
78584;BME280;67880;46.082;18.234;2024-01-06T14:01:57;98211.59;;;11.25;91.12
78584;BME280;67880;46.082;18.234;2024-01-06T14:02:29;98212.03;;;11.29;91.05
78584;BME280;67880;46.082;18.234;2024-01-06T14:03:04;98214.53;;;11.30;90.91
78584;BME280;67880;46.082;18.234;2024-01-06T14:04:33;98213.31;;;11.39;90.31
78584;BME280;67880;46.082;18.234;2024-01-06T14:05:05;98208.38;;;11.43;90.17
78584;BME280;67880;46.082;18.234;2024-01-06T14:05:40;98210.03;;;11.44;89.73
78584;BME280;67880;46.082;18.234;2024-01-06T14:06:14;98213.78;;;11.50;89.74
78584;BME280;67880;46.082;18.234;2024-01-06T14:06:46;98216.09;;;11.53;89.49
78584;BME280;67880;46.082;18.234;2024-01-06T14:08:12;98217.13;;;11.58;89.13
78584;BME280;67880;46.082;18.234;2024-01-06T14:08:45;98214.88;;;11.62;89.52
78584;BME280;67880;46.082;18.234;2024-01-06T14:09:17;98213.63;;;11.64;89.73
78584;BME280;67880;46.082;18.234;2024-01-06T14:09:49;98207.63;;;11.62;89.79
78584;BME280;67880;46.082;18.234;2024-01-06T14:10:24;98215.09;;;11.67;89.71
78584;BME280;67880;46.082;18.234;2024-01-06T14:10:56;98212.59;;;11.65;90.01
78584;BME280;67880;46.082;18.234;2024-01-06T14:11:28;98212.41;;;11.67;90.14
78584;BME280;67880;46.082;18.234;2024-01-06T14:12:02;98207.44;;;11.71;89.36
78584;BME280;67880;46.082;18.234;2024-01-06T14:12:37;98212.63;;;11.72;89.77
78584;BME280;67880;46.082;18.234;2024-01-06T14:13:09;98215.75;;;11.76;89.07
78584;BME280;67880;46.082;18.234;2024-01-06T14:13:41;98212.00;;;11.77;89.56
78584;BME280;67880;46.082;18.234;2024-01-06T14:14:15;98209.97;;;11.79;89.48
78584;BME280;67880;46.082;18.234;2024-01-06T14:14:47;98214.13;;;11.81;89.29
78584;BME280;67880;46.082;18.234;2024-01-06T14:15:19;98213.94;;;11.83;89.07
78584;BME280;67880;46.082;18.234;2024-01-06T14:15:51;98213.72;;;11.84;88.67
78584;BME280;67880;46.082;18.234;2024-01-06T14:16:24;98218.09;;;11.85;88.93
78584;BME280;67880;46.082;18.234;2024-01-06T14:16:57;98215.19;;;11.87;88.87
78584;BME280;67880;46.082;18.234;2024-01-06T14:17:30;98217.66;;;11.88;88.47
78584;BME280;67880;46.082;18.234;2024-01-06T14:18:06;98215.81;;;11.89;88.81
78584;BME280;67880;46.082;18.234;2024-01-06T14:18:45;98209.38;;;11.90;88.21
78584;BME280;67880;46.082;18.234;2024-01-06T14:19:17;98209.22;;;11.91;88.41
78584;BME280;67880;46.082;18.234;2024-01-06T14:19:49;98210.88;;;11.92;88.60
78584;BME280;67880;46.082;18.234;2024-01-06T14:20:22;98211.69;;;11.93;87.96
78584;BME280;67880;46.082;18.234;2024-01-06T14:20:53;98212.31;;;11.95;88.03
78584;BME280;67880;46.082;18.234;2024-01-06T14:21:27;98211.47;;;11.95;88.08
78584;BME280;67880;46.082;18.234;2024-01-06T14:22:00;98210.44;;;11.96;88.08
78584;BME280;67880;46.082;18.234;2024-01-06T14:22:32;98209.41;;;11.97;88.43
78584;BME280;67880;46.082;18.234;2024-01-06T14:23:04;98215.44;;;11.99;88.04
78584;BME280;67880;46.082;18.234;2024-01-06T14:23:38;98209.22;;;11.98;88.34
78584;BME280;67880;46.082;18.234;2024-01-06T14:24:10;98211.06;;;11.98;87.58
78584;BME280;67880;46.082;18.234;2024-01-06T14:24:44;98212.09;;;11.97;87.88
78584;BME280;67880;46.082;18.234;2024-01-06T14:25:16;98214.78;;;11.97;88.28
78584;BME280;67880;46.082;18.234;2024-01-06T14:25:51;98220.59;;;11.93;87.76
78584;BME280;67880;46.082;18.234;2024-01-06T14:26:23;98209.00;;;11.93;88.30
78584;BME280;67880;46.082;18.234;2024-01-06T14:26:56;98219.75;;;11.93;87.89
78584;BME280;67880;46.082;18.234;2024-01-06T14:27:31;98216.84;;;11.95;87.47
78584;BME280;67880;46.082;18.234;2024-01-06T14:28:03;98220.38;;;11.95;87.07
78584;BME280;67880;46.082;18.234;2024-01-06T14:28:38;98225.53;;;11.97;87.57
78584;BME280;67880;46.082;18.234;2024-01-06T14:29:10;98215.81;;;11.96;87.92
78584;BME280;67880;46.082;18.234;2024-01-06T14:29:44;98224.91;;;11.95;87.68
78584;BME280;67880;46.082;18.234;2024-01-06T14:30:16;98220.78;;;11.92;87.64
78584;BME280;67880;46.082;18.234;2024-01-06T14:30:48;98219.31;;;11.89;87.44
78584;BME280;67880;46.082;18.234;2024-01-06T14:31:20;98224.31;;;11.92;87.50
78584;BME280;67880;46.082;18.234;2024-01-06T14:31:52;98233.59;;;11.97;87.20
78584;BME280;67880;46.082;18.234;2024-01-06T14:32:25;98224.09;;;11.94;87.51
78584;BME280;67880;46.082;18.234;2024-01-06T14:32:57;98218.09;;;11.92;87.62
78584;BME280;67880;46.082;18.234;2024-01-06T14:33:29;98233.81;;;11.95;86.87
78584;BME280;67880;46.082;18.234;2024-01-06T14:34:01;98227.81;;;11.93;87.54
78584;BME280;67880;46.082;18.234;2024-01-06T14:34:35;98223.03;;;11.88;88.14
78584;BME280;67880;46.082;18.234;2024-01-06T14:35:07;98229.84;;;11.84;88.08
78584;BME280;67880;46.082;18.234;2024-01-06T14:35:42;98226.53;;;11.82;87.84
78584;BME280;67880;46.082;18.234;2024-01-06T14:36:15;98225.91;;;11.80;88.38
78584;BME280;67880;46.082;18.234;2024-01-06T14:36:47;98233.78;;;11.82;88.85
78584;BME280;67880;46.082;18.234;2024-01-06T14:37:20;98228.59;;;11.80;87.98
78584;BME280;67880;46.082;18.234;2024-01-06T14:37:55;98228.97;;;11.77;89.33
78584;BME280;67880;46.082;18.234;2024-01-06T14:38:28;98231.66;;;11.77;89.68
78584;BME280;67880;46.082;18.234;2024-01-06T14:39:00;98232.47;;;11.78;90.04
78584;BME280;67880;46.082;18.234;2024-01-06T14:39:32;98231.09;;;11.82;89.38
78584;BME280;67880;46.082;18.234;2024-01-06T14:40:06;98225.28;;;11.85;89.55
78584;BME280;67880;46.082;18.234;2024-01-06T14:40:38;98229.66;;;11.86;89.43
78584;BME280;67880;46.082;18.234;2024-01-06T14:41:10;98230.28;;;11.88;89.25
78584;BME280;67880;46.082;18.234;2024-01-06T14:41:43;98229.84;;;11.84;89.48
78584;BME280;67880;46.082;18.234;2024-01-06T14:42:15;98224.88;;;11.81;90.12
78584;BME280;67880;46.082;18.234;2024-01-06T14:42:48;98229.78;;;11.78;90.43
78584;BME280;67880;46.082;18.234;2024-01-06T14:43:20;98227.53;;;11.75;90.83
78584;BME280;67880;46.082;18.234;2024-01-06T14:43:52;98231.25;;;11.74;90.88
78584;BME280;67880;46.082;18.234;2024-01-06T14:44:24;98231.03;;;11.75;91.39
78584;BME280;67880;46.082;18.234;2024-01-06T14:44:59;98238.28;;;11.75;91.21
78584;BME280;67880;46.082;18.234;2024-01-06T14:45:31;98239.56;;;11.79;90.46
78584;BME280;67880;46.082;18.234;2024-01-06T14:46:04;98243.25;;;11.78;91.63
78584;BME280;67880;46.082;18.234;2024-01-06T14:46:38;98243.25;;;11.78;91.37
78584;BME280;67880;46.082;18.234;2024-01-06T14:47:10;98239.31;;;11.74;91.42
78584;BME280;67880;46.082;18.234;2024-01-06T14:47:42;98249.41;;;11.72;91.48
78584;BME280;67880;46.082;18.234;2024-01-06T14:48:14;98260.81;;;11.67;92.20
78584;BME280;67880;46.082;18.234;2024-01-06T14:48:46;98266.34;;;11.65;93.20
78584;BME280;67880;46.082;18.234;2024-01-06T14:49:19;98265.31;;;11.60;93.39
78584;BME280;67880;46.082;18.234;2024-01-06T14:49:53;98271.53;;;11.60;93.83
78584;BME280;67880;46.082;18.234;2024-01-06T14:50:25;98278.75;;;11.60;93.43
78584;BME280;67880;46.082;18.234;2024-01-06T14:50:58;98272.56;;;11.59;93.86
78584;BME280;67880;46.082;18.234;2024-01-06T14:51:30;98275.03;;;11.61;93.86
78584;BME280;67880;46.082;18.234;2024-01-06T14:52:02;98276.09;;;11.66;93.51
78584;BME280;67880;46.082;18.234;2024-01-06T14:52:52;98276.94;;;11.67;92.84
78584;BME280;67880;46.082;18.234;2024-01-06T14:53:24;98268.66;;;11.69;92.50
78584;BME280;67880;46.082;18.234;2024-01-06T14:53:56;98268.66;;;11.69;92.24
78584;BME280;67880;46.082;18.234;2024-01-06T14:54:29;98272.38;;;11.68;92.33
78584;BME280;67880;46.082;18.234;2024-01-06T14:55:03;98269.91;;;11.66;92.42
78584;BME280;67880;46.082;18.234;2024-01-06T14:55:35;98271.56;;;11.67;92.74
78584;BME280;67880;46.082;18.234;2024-01-06T14:56:08;98273.63;;;11.72;92.56
78584;BME280;67880;46.082;18.234;2024-01-06T14:56:41;98272.63;;;11.73;92.29
78584;BME280;67880;46.082;18.234;2024-01-06T14:57:13;98256.28;;;11.74;91.99
78584;BME280;67880;46.082;18.234;2024-01-06T14:57:45;98265.78;;;11.77;91.88
78584;BME280;67880;46.082;18.234;2024-01-06T14:58:17;98256.69;;;11.78;92.14
78584;BME280;67880;46.082;18.234;2024-01-06T14:58:49;98263.75;;;11.79;91.96
78584;BME280;67880;46.082;18.234;2024-01-06T14:59:21;98256.50;;;11.79;92.48
78584;BME280;67880;46.082;18.234;2024-01-06T14:59:53;98256.28;;;11.74;92.25
78584;BME280;67880;46.082;18.234;2024-01-06T15:00:25;98257.69;;;11.70;92.45
78584;BME280;67880;46.082;18.234;2024-01-06T15:00:57;98256.47;;;11.66;92.91
78584;BME280;67880;46.082;18.234;2024-01-06T15:01:32;98261.38;;;11.62;93.12
78584;BME280;67880;46.082;18.234;2024-01-06T15:02:04;98260.56;;;11.62;93.46
78584;BME280;67880;46.082;18.234;2024-01-06T15:02:39;98257.25;;;11.60;93.46
78584;BME280;67880;46.082;18.234;2024-01-06T15:03:11;98264.53;;;11.66;93.38
78584;BME280;67880;46.082;18.234;2024-01-06T15:03:43;98264.91;;;11.63;93.46
78584;BME280;67880;46.082;18.234;2024-01-06T15:04:16;98262.66;;;11.66;93.28
78584;BME280;67880;46.082;18.234;2024-01-06T15:04:50;98261.41;;;11.69;93.40
78584;BME280;67880;46.082;18.234;2024-01-06T15:05:23;98254.19;;;11.70;92.95
78584;BME280;67880;46.082;18.234;2024-01-06T15:05:57;98253.34;;;11.69;93.05
78584;BME280;67880;46.082;18.234;2024-01-06T15:06:29;98258.72;;;11.69;92.68
78584;BME280;67880;46.082;18.234;2024-01-06T15:07:01;98263.50;;;11.67;93.04
78584;BME280;67880;46.082;18.234;2024-01-06T15:07:34;98264.91;;;11.63;93.40
78584;BME280;67880;46.082;18.234;2024-01-06T15:08:09;98258.25;;;11.59;93.86
78584;BME280;67880;46.082;18.234;2024-01-06T15:08:41;98264.91;;;11.63;94.12
78584;BME280;67880;46.082;18.234;2024-01-06T15:09:12;98259.50;;;11.56;94.32
78584;BME280;67880;46.082;18.234;2024-01-06T15:09:52;98266.50;;;11.51;94.42
78584;BME280;67880;46.082;18.234;2024-01-06T15:10:24;98258.66;;;11.49;94.58
78584;BME280;67880;46.082;18.234;2024-01-06T15:10:56;98256.34;;;11.46;95.00
78584;BME280;67880;46.082;18.234;2024-01-06T15:11:28;98253.84;;;11.45;95.00
78584;BME280;67880;46.082;18.234;2024-01-06T15:12:00;98259.69;;;11.48;95.10
78584;BME280;67880;46.082;18.234;2024-01-06T15:12:32;98261.13;;;11.51;95.14
78584;BME280;67880;46.082;18.234;2024-01-06T15:13:05;98260.50;;;11.49;95.29
78584;BME280;67880;46.082;18.234;2024-01-06T15:13:37;98258.66;;;11.49;95.53
78584;BME280;67880;46.082;18.234;2024-01-06T15:14:09;98263.19;;;11.49;96.10
78584;BME280;67880;46.082;18.234;2024-01-06T15:14:41;98257.19;;;11.47;96.36
78584;BME280;67880;46.082;18.234;2024-01-06T15:15:13;98260.50;;;11.49;96.77
78584;BME280;67880;46.082;18.234;2024-01-06T15:15:46;98277.25;;;11.51;96.68
78584;BME280;67880;46.082;18.234;2024-01-06T15:16:21;98261.94;;;11.51;96.80
78584;BME280;67880;46.082;18.234;2024-01-06T15:16:53;98261.34;;;11.49;97.15
78584;BME280;67880;46.082;18.234;2024-01-06T15:17:26;98258.84;;;11.48;97.59
78584;BME280;67880;46.082;18.234;2024-01-06T15:17:58;98275.81;;;11.48;97.44
78584;BME280;67880;46.082;18.234;2024-01-06T15:18:30;98262.38;;;11.48;97.35
78584;BME280;67880;46.082;18.234;2024-01-06T15:19:03;98268.56;;;11.49;97.24
78584;BME280;67880;46.082;18.234;2024-01-06T15:19:35;98267.53;;;11.50;97.34
78584;BME280;67880;46.082;18.234;2024-01-06T15:20:10;98263.19;;;11.49;97.27
78584;BME280;67880;46.082;18.234;2024-01-06T15:20:43;98265.88;;;11.49;97.41
78584;BME280;67880;46.082;18.234;2024-01-06T15:21:16;98266.91;;;11.48;97.34
78584;BME280;67880;46.082;18.234;2024-01-06T15:21:55;98268.94;;;11.46;97.28
78584;BME280;67880;46.082;18.234;2024-01-06T15:22:27;98274.53;;;11.44;97.35
78584;BME280;67880;46.082;18.234;2024-01-06T15:23:00;98272.84;;;11.36;97.23
78584;BME280;67880;46.082;18.234;2024-01-06T15:23:32;98274.25;;;11.32;97.33
78584;BME280;67880;46.082;18.234;2024-01-06T15:24:04;98283.34;;;11.31;97.37
78584;BME280;67880;46.082;18.234;2024-01-06T15:24:36;98284.34;;;11.24;97.83
78584;BME280;67880;46.082;18.234;2024-01-06T15:25:09;98273.81;;;11.22;97.83
78584;BME280;67880;46.082;18.234;2024-01-06T15:25:42;98281.66;;;11.24;97.89
78584;BME280;67880;46.082;18.234;2024-01-06T15:26:21;98286.00;;;11.25;98.01
78584;BME280;67880;46.082;18.234;2024-01-06T15:26:54;98286.41;;;11.22;97.76
78584;BME280;67880;46.082;18.234;2024-01-06T15:27:26;98281.63;;;11.17;97.72
78584;BME280;67880;46.082;18.234;2024-01-06T15:27:58;98278.09;;;11.17;97.53
78584;BME280;67880;46.082;18.234;2024-01-06T15:28:30;98284.69;;;11.14;97.70
78584;BME280;67880;46.082;18.234;2024-01-06T15:29:04;98280.34;;;11.13;97.59
78584;BME280;67880;46.082;18.234;2024-01-06T15:29:37;98280.34;;;11.13;97.11
78584;BME280;67880;46.082;18.234;2024-01-06T15:30:09;98292.56;;;11.16;97.03
78584;BME280;67880;46.082;18.234;2024-01-06T15:30:41;98289.06;;;11.15;97.29
78584;BME280;67880;46.082;18.234;2024-01-06T15:31:13;98291.72;;;11.15;97.59
78584;BME280;67880;46.082;18.234;2024-01-06T15:31:46;98287.59;;;11.19;97.81
78584;BME280;67880;46.082;18.234;2024-01-06T15:32:18;98295.91;;;11.24;96.95
78584;BME280;67880;46.082;18.234;2024-01-06T15:32:50;98282.06;;;11.21;96.96
78584;BME280;67880;46.082;18.234;2024-01-06T15:33:23;98284.09;;;11.19;97.11
78584;BME280;67880;46.082;18.234;2024-01-06T15:33:56;98288.25;;;11.21;97.39
78584;BME280;67880;46.082;18.234;2024-01-06T15:34:29;98290.94;;;11.21;97.59
78584;BME280;67880;46.082;18.234;2024-01-06T15:35:02;98288.22;;;11.15;98.55
78584;BME280;67880;46.082;18.234;2024-01-06T15:35:34;98286.97;;;11.17;98.77
78584;BME280;67880;46.082;18.234;2024-01-06T15:36:06;98282.66;;;11.16;99.23
78584;BME280;67880;46.082;18.234;2024-01-06T15:36:38;98289.25;;;11.20;99.25
78584;BME280;67880;46.082;18.234;2024-01-06T15:37:13;98281.84;;;11.22;99.47
78584;BME280;67880;46.082;18.234;2024-01-06T15:37:45;98280.00;;;11.23;98.77
78584;BME280;67880;46.082;18.234;2024-01-06T15:38:18;98285.78;;;11.26;99.33
78584;BME280;67880;46.082;18.234;2024-01-06T15:38:59;98274.03;;;11.27;98.86
78584;BME280;67880;46.082;18.234;2024-01-06T15:39:31;98278.38;;;11.28;98.97
78584;BME280;67880;46.082;18.234;2024-01-06T15:40:04;98274.88;;;11.28;99.18
78584;BME280;67880;46.082;18.234;2024-01-06T15:40:36;98280.25;;;11.28;99.19
78584;BME280;67880;46.082;18.234;2024-01-06T15:41:10;98270.69;;;11.25;99.27
78584;BME280;67880;46.082;18.234;2024-01-06T15:41:42;98272.72;;;11.17;99.79
78584;BME280;67880;46.082;18.234;2024-01-06T15:42:15;98277.66;;;11.13;99.71
78584;BME280;67880;46.082;18.234;2024-01-06T15:42:47;98267.53;;;11.08;100.00
78584;BME280;67880;46.082;18.234;2024-01-06T15:43:20;98270.00;;;11.10;99.89
78584;BME280;67880;46.082;18.234;2024-01-06T15:43:52;98271.41;;;11.06;100.00
78584;BME280;67880;46.082;18.234;2024-01-06T15:44:24;98270.38;;;11.07;100.00
78584;BME280;67880;46.082;18.234;2024-01-06T15:44:57;98275.75;;;11.07;100.00
78584;BME280;67880;46.082;18.234;2024-01-06T15:45:29;98272.44;;;11.05;100.00
78584;BME280;67880;46.082;18.234;2024-01-06T15:46:01;98264.13;;;11.00;100.00
78584;BME280;67880;46.082;18.234;2024-01-06T15:46:33;98267.84;;;10.99;100.00
78584;BME280;67880;46.082;18.234;2024-01-06T15:47:05;98267.84;;;10.99;100.00
78584;BME280;67880;46.082;18.234;2024-01-06T15:47:40;98265.78;;;11.01;100.00
78584;BME280;67880;46.082;18.234;2024-01-06T15:48:12;98270.53;;;10.99;100.00
78584;BME280;67880;46.082;18.234;2024-01-06T15:48:44;98271.38;;;10.99;100.00
78584;BME280;67880;46.082;18.234;2024-01-06T15:49:16;98272.03;;;11.01;99.85
78584;BME280;67880;46.082;18.234;2024-01-06T15:49:50;98272.44;;;11.05;100.00
78584;BME280;67880;46.082;18.234;2024-01-06T15:50:23;98276.41;;;11.09;99.13
78584;BME280;67880;46.082;18.234;2024-01-06T15:50:55;98274.13;;;11.12;99.23
78584;BME280;67880;46.082;18.234;2024-01-06T15:51:27;98265.25;;;11.12;98.83
78584;BME280;67880;46.082;18.234;2024-01-06T15:51:59;98266.72;;;11.15;98.96
78584;BME280;67880;46.082;18.234;2024-01-06T15:52:31;98271.91;;;11.16;98.86
78584;BME280;67880;46.082;18.234;2024-01-06T15:53:03;98264.47;;;11.18;98.87
78584;BME280;67880;46.082;18.234;2024-01-06T15:53:35;98271.06;;;11.16;98.55
78584;BME280;67880;46.082;18.234;2024-01-06T15:54:07;98272.47;;;11.11;98.63
78584;BME280;67880;46.082;18.234;2024-01-06T15:54:39;98269.16;;;11.09;98.68
78584;BME280;67880;46.082;18.234;2024-01-06T15:55:12;98266.88;;;11.06;99.14
78584;BME280;67880;46.082;18.234;2024-01-06T15:56:35;98264.78;;;11.02;99.61
78584;BME280;67880;46.082;18.234;2024-01-06T15:57:07;98271.63;;;11.04;99.82
78584;BME280;67880;46.082;18.234;2024-01-06T15:57:40;98267.69;;;11.07;100.00
78584;BME280;67880;46.082;18.234;2024-01-06T15:58:12;98254.09;;;11.08;99.87
78584;BME280;67880;46.082;18.234;2024-01-06T15:58:45;98255.53;;;11.11;100.00
78584;BME280;67880;46.082;18.234;2024-01-06T15:59:17;98255.34;;;11.12;99.53
78584;BME280;67880;46.082;18.234;2024-01-06T15:59:49;98252.22;;;11.09;100.00
78584;BME280;67880;46.082;18.234;2024-01-06T16:00:22;98259.84;;;11.05;100.00
78584;BME280;67880;46.082;18.234;2024-01-06T16:00:54;98261.91;;;11.03;99.93
78584;BME280;67880;46.082;18.234;2024-01-06T16:01:26;98256.06;;;11.00;100.00
78584;BME280;67880;46.082;18.234;2024-01-06T16:01:58;98259.78;;;10.99;100.00
78584;BME280;67880;46.082;18.234;2024-01-06T16:02:30;98261.44;;;11.00;99.88
78584;BME280;67880;46.082;18.234;2024-01-06T16:03:04;98258.19;;;11.04;99.97
78584;BME280;67880;46.082;18.234;2024-01-06T16:03:39;98254.88;;;11.02;99.35
78584;BME280;67880;46.082;18.234;2024-01-06T16:04:12;98250.75;;;11.06;98.91
78584;BME280;67880;46.082;18.234;2024-01-06T16:04:44;98261.94;;;11.10;98.83
78584;BME280;67880;46.082;18.234;2024-01-06T16:05:16;98255.53;;;11.11;98.84
78584;BME280;67880;46.082;18.234;2024-01-06T16:05:48;98254.09;;;11.08;98.58
78584;BME280;67880;46.082;18.234;2024-01-06T16:06:20;98253.69;;;11.11;97.69
78584;BME280;67880;46.082;18.234;2024-01-06T16:06:52;98251.63;;;11.13;97.97
78584;BME280;67880;46.082;18.234;2024-01-06T16:07:25;98250.56;;;11.08;97.90
78584;BME280;67880;46.082;18.234;2024-01-06T16:07:58;98248.88;;;11.07;98.03
78584;BME280;67880;46.082;18.234;2024-01-06T16:08:30;98252.84;;;11.11;97.78
78584;BME280;67880;46.082;18.234;2024-01-06T16:09:02;98247.28;;;11.12;97.56
78584;BME280;67880;46.082;18.234;2024-01-06T16:09:37;98251.63;;;11.13;98.05
78584;BME280;67880;46.082;18.234;2024-01-06T16:10:09;98241.91;;;11.12;97.39
78584;BME280;67880;46.082;18.234;2024-01-06T16:10:43;98245.25;;;11.15;97.73
78584;BME280;67880;46.082;18.234;2024-01-06T16:11:15;98247.06;;;11.14;97.55
78584;BME280;67880;46.082;18.234;2024-01-06T16:11:47;98244.59;;;11.12;97.34
78584;BME280;67880;46.082;18.234;2024-01-06T16:12:19;98243.56;;;11.13;97.37
78584;BME280;67880;46.082;18.234;2024-01-06T16:12:51;98239.88;;;11.15;97.63
78584;BME280;67880;46.082;18.234;2024-01-06T16:13:23;98244.38;;;11.14;96.84
78584;BME280;67880;46.082;18.234;2024-01-06T16:13:55;98245.25;;;11.15;97.01
78584;BME280;67880;46.082;18.234;2024-01-06T16:14:27;98246.25;;;11.13;96.91
78584;BME280;67880;46.082;18.234;2024-01-06T16:15:02;98246.91;;;11.16;96.23
78584;BME280;67880;46.082;18.234;2024-01-06T16:15:34;98241.69;;;11.14;96.25
78584;BME280;67880;46.082;18.234;2024-01-06T16:16:06;98234.69;;;11.13;95.46
78584;BME280;67880;46.082;18.234;2024-01-06T16:16:38;98239.00;;;11.14;95.46
78584;BME280;67880;46.082;18.234;2024-01-06T16:17:10;98242.56;;;11.15;95.42
78584;BME280;67880;46.082;18.234;2024-01-06T16:17:42;98239.88;;;11.15;95.17
78584;BME280;67880;46.082;18.234;2024-01-06T16:18:14;98241.69;;;11.14;94.74
78584;BME280;67880;46.082;18.234;2024-01-06T16:18:47;98242.34;;;11.16;94.57
78584;BME280;67880;46.082;18.234;2024-01-06T16:19:19;98234.28;;;11.16;94.56
78584;BME280;67880;46.082;18.234;2024-01-06T16:19:52;98233.47;;;11.16;94.51
78584;BME280;67880;46.082;18.234;2024-01-06T16:20:24;98239.47;;;11.18;94.61
78584;BME280;67880;46.082;18.234;2024-01-06T16:20:56;98237.41;;;11.20;94.68
78584;BME280;67880;46.082;18.234;2024-01-06T16:21:29;98225.81;;;11.19;94.68
78584;BME280;67880;46.082;18.234;2024-01-06T16:22:03;98230.38;;;11.19;94.70
78584;BME280;67880;46.082;18.234;2024-01-06T16:22:52;98236.56;;;11.19;94.91
78584;BME280;67880;46.082;18.234;2024-01-06T16:23:27;98229.53;;;11.18;94.90
78584;BME280;67880;46.082;18.234;2024-01-06T16:23:59;98231.19;;;11.19;94.80
78584;BME280;67880;46.082;18.234;2024-01-06T16:24:31;98231.41;;;11.18;94.82
78584;BME280;67880;46.082;18.234;2024-01-06T16:25:07;98226.84;;;11.18;94.45
78584;BME280;67880;46.082;18.234;2024-01-06T16:25:39;98229.75;;;11.17;94.54
78584;BME280;67880;46.082;18.234;2024-01-06T16:26:11;98232.22;;;11.18;94.30
78584;BME280;67880;46.082;18.234;2024-01-06T16:26:44;98225.00;;;11.19;94.46
78584;BME280;67880;46.082;18.234;2024-01-06T16:27:16;98230.38;;;11.19;94.06
78584;BME280;67880;46.082;18.234;2024-01-06T16:27:49;98225.19;;;11.17;94.64
78584;BME280;67880;46.082;18.234;2024-01-06T16:28:22;98228.72;;;11.18;94.76
78584;BME280;67880;46.082;18.234;2024-01-06T16:28:54;98224.38;;;11.17;94.38
78584;BME280;67880;46.082;18.234;2024-01-06T16:29:26;98222.53;;;11.17;94.33
78584;BME280;67880;46.082;18.234;2024-01-06T16:29:58;98225.41;;;11.16;93.96
78584;BME280;67880;46.082;18.234;2024-01-06T16:30:30;98226.84;;;11.18;93.53
78584;BME280;67880;46.082;18.234;2024-01-06T16:31:02;98223.34;;;11.18;93.38
78584;BME280;67880;46.082;18.234;2024-01-06T16:31:35;98226.03;;;11.18;93.40
78584;BME280;67880;46.082;18.234;2024-01-06T16:32:07;98222.72;;;11.16;93.27
78584;BME280;67880;46.082;18.234;2024-01-06T16:32:39;98220.66;;;11.18;93.36
78584;BME280;67880;46.082;18.234;2024-01-06T16:33:11;98226.84;;;11.18;92.94
78584;BME280;67880;46.082;18.234;2024-01-06T16:33:46;98227.47;;;11.20;92.84
78584;BME280;67880;46.082;18.234;2024-01-06T16:34:18;98215.91;;;11.20;93.17
78584;BME280;67880;46.082;18.234;2024-01-06T16:34:50;98214.69;;;11.22;92.79
78584;BME280;67880;46.082;18.234;2024-01-06T16:35:22;98217.38;;;11.22;92.64
78584;BME280;67880;46.082;18.234;2024-01-06T16:35:54;98219.03;;;11.23;92.86
78584;BME280;67880;46.082;18.234;2024-01-06T16:36:30;98215.53;;;11.23;93.06
78584;BME280;67880;46.082;18.234;2024-01-06T16:37:02;98215.53;;;11.23;93.30
78584;BME280;67880;46.082;18.234;2024-01-06T16:37:34;98217.19;;;11.24;93.31
78584;BME280;67880;46.082;18.234;2024-01-06T16:38:06;98216.34;;;11.23;93.05
78584;BME280;67880;46.082;18.234;2024-01-06T16:38:39;98218.00;;;11.24;93.23
78584;BME280;67880;46.082;18.234;2024-01-06T16:39:12;98218.00;;;11.24;92.88
78584;BME280;67880;46.082;18.234;2024-01-06T16:39:44;98213.47;;;11.25;92.61
78584;BME280;67880;46.082;18.234;2024-01-06T16:40:16;98214.28;;;11.25;92.75
78584;BME280;67880;46.082;18.234;2024-01-06T16:40:50;98215.94;;;11.26;92.46
78584;BME280;67880;46.082;18.234;2024-01-06T16:41:22;98215.13;;;11.26;93.22
78584;BME280;67880;46.082;18.234;2024-01-06T16:41:58;98208.72;;;11.27;92.56
78584;BME280;67880;46.082;18.234;2024-01-06T16:42:30;98208.91;;;11.25;92.39
78584;BME280;67880;46.082;18.234;2024-01-06T16:43:03;98204.19;;;11.27;92.67
78584;BME280;67880;46.082;18.234;2024-01-06T16:43:35;98207.88;;;11.26;92.57
78584;BME280;67880;46.082;18.234;2024-01-06T16:44:10;98208.53;;;11.28;92.51
78584;BME280;67880;46.082;18.234;2024-01-06T16:44:43;98204.19;;;11.27;93.24
78584;BME280;67880;46.082;18.234;2024-01-06T16:45:16;98203.16;;;11.28;92.78
78584;BME280;67880;46.082;18.234;2024-01-06T16:45:48;98202.13;;;11.29;92.62
78584;BME280;67880;46.082;18.234;2024-01-06T16:46:22;98208.94;;;11.32;92.36
78584;BME280;67880;46.082;18.234;2024-01-06T16:46:54;98209.78;;;11.32;92.26
78584;BME280;67880;46.082;18.234;2024-01-06T16:47:29;98211.63;;;11.32;92.10
78584;BME280;67880;46.082;18.234;2024-01-06T16:48:02;98213.28;;;11.33;92.30
78584;BME280;67880;46.082;18.234;2024-01-06T16:48:34;98212.47;;;11.32;92.41
78584;BME280;67880;46.082;18.234;2024-01-06T16:49:06;98210.59;;;11.33;92.47
78584;BME280;67880;46.082;18.234;2024-01-06T16:49:38;98213.94;;;11.35;92.17
78584;BME280;67880;46.082;18.234;2024-01-06T16:50:11;98210.00;;;11.37;92.32
78584;BME280;67880;46.082;18.234;2024-01-06T16:50:43;98216.41;;;11.36;91.92
78584;BME280;67880;46.082;18.234;2024-01-06T16:51:18;98214.31;;;11.32;92.57
78584;BME280;67880;46.082;18.234;2024-01-06T16:51:50;98214.97;;;11.34;92.66
78584;BME280;67880;46.082;18.234;2024-01-06T16:52:22;98212.91;;;11.36;92.68
78584;BME280;67880;46.082;18.234;2024-01-06T16:52:54;98217.44;;;11.35;92.33
78584;BME280;67880;46.082;18.234;2024-01-06T16:53:26;98218.28;;;11.36;91.86
78584;BME280;67880;46.082;18.234;2024-01-06T16:53:58;98213.72;;;11.36;91.99
78584;BME280;67880;46.082;18.234;2024-01-06T16:54:30;98217.88;;;11.39;91.76
78584;BME280;67880;46.082;18.234;2024-01-06T16:55:03;98217.03;;;11.38;91.69